Time;durP1;ratioP1;P1;durP2;ratioP2;P2;SDS_P1;SDS_P2;PMS_P1;PMS_P2;Temp;Humidity;BMP_temperature;BMP_pressure;BME280_temperature;BME280_humidity;BME280_pressure;Samples;Min_cycle;Max_cycle;Signal;HPM_P1;HPM_P2
2024/01/26 00:00:27;;;;;;;48.38;27.95;;;;;;;;;;5001503;28;95009;-68
2024/01/26 00:02:54;;;;;;;46.45;27.38;;;;;;;;;;4997645;28;94969;-68
2024/01/26 00:05:21;;;;;;;52.20;28.98;;;;;;;;;;4998886;28;93660;-68
2024/01/26 00:07:48;;;;;;;44.10;27.17;;;;;;;;;;4996349;28;92405;-68
2024/01/26 00:10:15;;;;;;;53.75;28.25;;;;;;;;;;5001149;28;93565;-67
2024/01/26 00:12:42;;;;;;;55.80;27.80;;;;;;;;;;4998664;28;93100;-68
2024/01/26 00:15:09;;;;;;;48.80;28.80;;;;;;;;;;4997975;28;92890;-68
2024/01/26 00:17:35;;;;;;;47.05;27.90;;;;;;;;;;4996932;28;92699;-68
2024/01/26 00:20:01;;;;;;;50.08;27.42;;;;;;;;;;4997762;28;93495;-68
2024/01/26 00:22:28;;;;;;;46.97;26.30;;;;;;;;;;4993060;28;95139;-68
2024/01/26 00:24:54;;;;;;;45.53;25.30;;;;;;;;;;4998039;28;94360;-70
2024/01/26 00:27:22;;;;;;;44.03;26.35;;;;;;;;;;4997173;28;92874;-69
2024/01/26 00:29:48;;;;;;;47.08;24.38;;;;;;;;;;4990021;28;93785;-70
2024/01/26 00:32:14;;;;;;;40.30;24.48;;;;;;;;;;4999838;28;93339;-70
2024/01/26 00:34:41;;;;;;;44.92;25.35;;;;;;;;;;4997943;28;92472;-70
2024/01/26 00:37:07;;;;;;;39.47;24.75;;;;;;;;;;4997807;28;93227;-70
2024/01/26 00:39:34;;;;;;;43.25;23.80;;;;;;;;;;4999684;28;92952;-71
2024/01/26 00:42:01;;;;;;;56.10;23.33;;;;;;;;;;4998780;28;92451;-69
2024/01/26 00:44:27;;;;;;;39.00;24.27;;;;;;;;;;4997679;28;93427;-70
2024/01/26 00:46:53;;;;;;;36.92;21.92;;;;;;;;;;4997311;28;94835;-70
2024/01/26 00:49:20;;;;;;;35.50;22.77;;;;;;;;;;4998925;28;96720;-70
2024/01/26 00:51:56;;;;;;;49.10;23.33;;;;;;;;;;4996859;28;93724;-69
2024/01/26 00:54:22;;;;;;;38.30;21.38;;;;;;;;;;4996526;28;92466;-69
2024/01/26 00:56:49;;;;;;;42.78;22.35;;;;;;;;;;4998307;28;93729;-69
2024/01/26 00:59:16;;;;;;;33.88;22.42;;;;;;;;;;5002017;28;93446;-69
2024/01/26 01:01:42;;;;;;;32.03;20.77;;;;;;;;;;4997201;28;92661;-69
2024/01/26 01:04:08;;;;;;;29.95;19.17;;;;;;;;;;5005077;28;94652;-69
2024/01/26 01:06:35;;;;;;;25.60;17.58;;;;;;;;;;5002398;28;92555;-69
2024/01/26 01:09:01;;;;;;;24.90;17.15;;;;;;;;;;5002330;28;93821;-70
2024/01/26 01:11:28;;;;;;;26.45;16.85;;;;;;;;;;4997554;28;95786;-70
2024/01/26 01:13:54;;;;;;;28.02;17.85;;;;;;;;;;4999513;28;92347;-70
2024/01/26 01:16:22;;;;;;;26.75;17.40;;;;;;;;;;4996192;28;93537;-70
2024/01/26 01:18:48;;;;;;;28.13;17.88;;;;;;;;;;5006464;28;94932;-70
2024/01/26 01:21:15;;;;;;;27.08;17.67;;;;;;;;;;4999096;28;92670;-70
2024/01/26 01:23:41;;;;;;;27.65;18.45;;;;;;;;;;4999278;28;93270;-70
2024/01/26 01:26:08;;;;;;;27.38;17.02;;;;;;;;;;5004129;28;93367;-70
2024/01/26 01:28:34;;;;;;;27.08;17.55;;;;;;;;;;5004576;28;94073;-70
2024/01/26 01:31:01;;;;;;;22.95;16.58;;;;;;;;;;4997933;28;93417;-69
2024/01/26 01:33:27;;;;;;;26.45;17.25;;;;;;;;;;4998067;28;92756;-69
2024/01/26 01:35:54;;;;;;;29.85;16.52;;;;;;;;;;5004352;28;94972;-69
2024/01/26 01:38:20;;;;;;;28.10;17.10;;;;;;;;;;5002403;28;94364;-69
2024/01/26 01:40:46;;;;;;;26.02;16.52;;;;;;;;;;5001597;28;92794;-70
2024/01/26 01:43:17;;;;;;;25.77;15.90;;;;;;;;;;5001492;28;93048;-70
2024/01/26 01:45:43;;;;;;;25.13;14.60;;;;;;;;;;5004812;28;92510;-69
2024/01/26 01:48:09;;;;;;;22.02;13.43;;;;;;;;;;5005138;28;92727;-69
2024/01/26 01:50:36;;;;;;;21.35;13.82;;;;;;;;;;5003252;28;94454;-70
2024/01/26 01:53:04;;;;;;;22.52;13.32;;;;;;;;;;5004261;28;92093;-69
2024/01/26 01:55:30;;;;;;;20.48;12.35;;;;;;;;;;5005332;28;92528;-69
2024/01/26 01:57:57;;;;;;;17.27;12.43;;;;;;;;;;5001527;28;93396;-70
2024/01/26 02:00:24;;;;;;;19.45;11.85;;;;;;;;;;4996863;28;94874;-69
2024/01/26 02:02:52;;;;;;;18.20;11.95;;;;;;;;;;5001398;28;98301;-69
2024/01/26 02:05:18;;;;;;;17.63;11.57;;;;;;;;;;4999153;28;93742;-70
2024/01/26 02:07:51;;;;;;;18.08;12.05;;;;;;;;;;5003705;28;92739;-70
2024/01/26 02:10:18;;;;;;;14.35;9.70;;;;;;;;;;5006861;28;93066;-70
2024/01/26 02:12:44;;;;;;;14.75;9.80;;;;;;;;;;4996552;28;92405;-69
2024/01/26 02:15:11;;;;;;;14.73;9.60;;;;;;;;;;5000602;28;93142;-69
2024/01/26 02:17:39;;;;;;;10.43;8.45;;;;;;;;;;5003956;28;92764;-69
2024/01/26 02:20:07;;;;;;;10.57;7.93;;;;;;;;;;5006951;28;93178;-69
2024/01/26 02:22:33;;;;;;;10.20;7.65;;;;;;;;;;4999140;28;93096;-69
2024/01/26 02:25:00;;;;;;;11.50;8.18;;;;;;;;;;5001390;28;95930;-70
2024/01/26 02:27:26;;;;;;;12.07;8.13;;;;;;;;;;5006312;28;92491;-70
2024/01/26 02:29:53;;;;;;;10.02;7.57;;;;;;;;;;4999070;28;93169;-70
2024/01/26 02:32:19;;;;;;;10.55;7.97;;;;;;;;;;5007150;28;94819;-70
2024/01/26 02:34:45;;;;;;;12.38;8.75;;;;;;;;;;4999446;28;93146;-70
2024/01/26 02:37:12;;;;;;;10.32;8.77;;;;;;;;;;5002230;28;93490;-70
2024/01/26 02:39:38;;;;;;;13.75;9.18;;;;;;;;;;5000840;28;92550;-70
2024/01/26 02:42:05;;;;;;;17.73;9.50;;;;;;;;;;5005369;28;94621;-70
2024/01/26 02:44:32;;;;;;;14.88;10.45;;;;;;;;;;5005033;28;93453;-69
2024/01/26 02:46:59;;;;;;;15.10;11.77;;;;;;;;;;4998028;28;92839;-69
2024/01/26 02:49:26;;;;;;;16.17;12.25;;;;;;;;;;4999104;28;94856;-69
2024/01/26 02:51:52;;;;;;;21.55;13.82;;;;;;;;;;5007257;28;93643;-70
2024/01/26 02:54:19;;;;;;;20.48;14.50;;;;;;;;;;5003030;28;92554;-69
2024/01/26 02:56:49;;;;;;;22.27;15.57;;;;;;;;;;4998110;28;93890;-69
2024/01/26 02:59:15;;;;;;;23.35;15.93;;;;;;;;;;5002694;28;92516;-70
2024/01/26 03:01:42;;;;;;;25.50;16.65;;;;;;;;;;5003556;28;93344;-70
2024/01/26 03:04:08;;;;;;;23.50;16.95;;;;;;;;;;4998135;28;93714;-69
2024/01/26 03:06:34;;;;;;;22.65;16.73;;;;;;;;;;5001073;28;91692;-70
2024/01/26 03:09:03;;;;;;;25.65;17.15;;;;;;;;;;5001177;28;92848;-70
2024/01/26 03:11:39;;;;;;;29.55;17.75;;;;;;;;;;4995512;28;93370;-69
2024/01/26 03:14:06;;;;;;;27.85;17.50;;;;;;;;;;5000524;28;94902;-69
2024/01/26 03:16:33;;;;;;;26.58;17.52;;;;;;;;;;4998223;28;93747;-70
2024/01/26 03:18:59;;;;;;;25.23;17.45;;;;;;;;;;4999795;28;92611;-70
2024/01/26 03:21:26;;;;;;;28.02;19.83;;;;;;;;;;5003188;28;93373;-70
2024/01/26 03:23:52;;;;;;;29.42;17.52;;;;;;;;;;4998966;28;92482;-69
2024/01/26 03:26:19;;;;;;;23.60;16.35;;;;;;;;;;5004145;28;92609;-70
2024/01/26 03:28:46;;;;;;;24.63;15.32;;;;;;;;;;5002328;28;93211;-70
2024/01/26 03:31:12;;;;;;;25.38;16.63;;;;;;;;;;4998523;28;92678;-70
2024/01/26 03:33:39;;;;;;;27.63;16.30;;;;;;;;;;4998555;28;92534;-70
2024/01/26 03:36:06;;;;;;;26.55;14.30;;;;;;;;;;5000371;28;93165;-70
2024/01/26 03:38:35;;;;;;;18.85;12.52;;;;;;;;;;5000278;28;95666;-70
2024/01/26 03:41:02;;;;;;;20.77;14.13;;;;;;;;;;5001371;28;95663;-70
2024/01/26 03:43:28;;;;;;;23.23;12.88;;;;;;;;;;4993700;28;93735;-70
2024/01/26 03:45:54;;;;;;;18.15;11.30;;;;;;;;;;4997977;28;92531;-70
2024/01/26 03:48:21;;;;;;;16.65;10.68;;;;;;;;;;4998605;28;94292;-70
2024/01/26 03:50:47;;;;;;;19.35;11.43;;;;;;;;;;5002201;28;93937;-70
2024/01/26 03:53:13;;;;;;;27.17;11.07;;;;;;;;;;4997210;28;92818;-69
2024/01/26 03:55:40;;;;;;;14.98;10.20;;;;;;;;;;4999255;28;92322;-70
2024/01/26 03:58:06;;;;;;;17.95;9.93;;;;;;;;;;5003096;28;93311;-70
2024/01/26 04:00:32;;;;;;;23.40;10.05;;;;;;;;;;4998773;28;93074;-70
2024/01/26 04:02:59;;;;;;;15.70;9.57;;;;;;;;;;4995353;28;96297;-70
2024/01/26 04:05:26;;;;;;;14.98;9.07;;;;;;;;;;4998562;28;92564;-70
2024/01/26 04:07:52;;;;;;;15.05;9.07;;;;;;;;;;5003743;28;93109;-70
2024/01/26 04:10:18;;;;;;;13.68;9.48;;;;;;;;;;5001925;28;93689;-70
2024/01/26 04:12:45;;;;;;;13.27;9.43;;;;;;;;;;5000934;28;92485;-70
2024/01/26 04:15:11;;;;;;;18.77;10.65;;;;;;;;;;4999677;28;93207;-70
2024/01/26 04:17:38;;;;;;;14.32;10.43;;;;;;;;;;5002707;28;93237;-70
2024/01/26 04:20:05;;;;;;;20.85;10.38;;;;;;;;;;4992129;28;94573;-70
2024/01/26 04:22:31;;;;;;;16.70;10.45;;;;;;;;;;4999005;28;93426;-69
2024/01/26 04:24:58;;;;;;;18.33;10.80;;;;;;;;;;4997498;28;92666;-69
2024/01/26 04:27:24;;;;;;;15.25;10.30;;;;;;;;;;5000763;28;94935;-70
2024/01/26 04:29:50;;;;;;;16.48;11.18;;;;;;;;;;5000268;28;93901;-69
2024/01/26 04:32:16;;;;;;;22.02;12.00;;;;;;;;;;4999247;28;93157;-69
2024/01/26 04:34:45;;;;;;;16.55;10.90;;;;;;;;;;4990210;28;93166;-69
2024/01/26 04:37:11;;;;;;;16.17;10.70;;;;;;;;;;5002221;28;93390;-69
2024/01/26 04:39:37;;;;;;;15.55;10.07;;;;;;;;;;4999644;28;92704;-69
2024/01/26 04:42:04;;;;;;;15.60;10.02;;;;;;;;;;5001694;28;94289;-69
2024/01/26 04:44:31;;;;;;;15.80;10.43;;;;;;;;;;4992952;28;92162;-69
2024/01/26 04:46:57;;;;;;;15.38;9.82;;;;;;;;;;5002145;28;92891;-70
2024/01/26 04:49:24;;;;;;;12.98;9.82;;;;;;;;;;4997615;28;93218;-70
2024/01/26 04:51:50;;;;;;;16.20;10.40;;;;;;;;;;4996928;28;95633;-70
2024/01/26 04:54:16;;;;;;;15.07;10.40;;;;;;;;;;5004553;28;96589;-69
2024/01/26 04:56:43;;;;;;;14.38;10.45;;;;;;;;;;5004964;28;93707;-69
2024/01/26 04:59:09;;;;;;;16.85;10.80;;;;;;;;;;5001895;28;92507;-69
2024/01/26 05:01:36;;;;;;;18.20;9.80;;;;;;;;;;5007320;28;93304;-69
2024/01/26 05:04:03;;;;;;;15.38;9.82;;;;;;;;;;4998419;28;92806;-70
2024/01/26 05:06:30;;;;;;;20.00;9.60;;;;;;;;;;5005234;28;93163;-68
2024/01/26 05:08:56;;;;;;;15.90;10.02;;;;;;;;;;5007253;28;92872;-68
2024/01/26 05:11:23;;;;;;;14.60;10.32;;;;;;;;;;5002463;28;92479;-68
2024/01/26 05:13:49;;;;;;;19.67;10.45;;;;;;;;;;5002128;28;93508;-68
2024/01/26 05:16:16;;;;;;;20.45;11.48;;;;;;;;;;4997896;28;97270;-68
2024/01/26 05:18:42;;;;;;;22.50;10.30;;;;;;;;;;5004745;28;92814;-68
2024/01/26 05:21:09;;;;;;;15.43;10.25;;;;;;;;;;5001102;28;94720;-68
2024/01/26 05:23:35;;;;;;;18.02;10.30;;;;;;;;;;5000864;28;93617;-67
2024/01/26 05:26:02;;;;;;;15.68;10.05;;;;;;;;;;5001628;28;92852;-68
2024/01/26 05:28:28;;;;;;;20.00;10.65;;;;;;;;;;4996499;28;93462;-68
2024/01/26 05:30:54;;;;;;;18.48;9.85;;;;;;;;;;4998962;28;92451;-68
2024/01/26 05:33:21;;;;;;;17.50;10.23;;;;;;;;;;5001220;28;93280;-68
2024/01/26 05:35:47;;;;;;;18.02;10.32;;;;;;;;;;5004915;28;93459;-68
2024/01/26 05:38:14;;;;;;;16.20;9.82;;;;;;;;;;5003783;28;92640;-68
2024/01/26 05:40:40;;;;;;;12.65;9.73;;;;;;;;;;4996442;28;95300;-67
2024/01/26 05:43:06;;;;;;;14.63;9.20;;;;;;;;;;5001852;28;93496;-68
2024/01/26 05:45:33;;;;;;;14.43;9.40;;;;;;;;;;5000282;28;92646;-68
2024/01/26 05:47:59;;;;;;;17.73;9.65;;;;;;;;;;5001116;28;93443;-68
2024/01/26 05:50:25;;;;;;;18.65;9.95;;;;;;;;;;5008609;28;92434;-69
2024/01/26 05:52:52;;;;;;;16.85;8.88;;;;;;;;;;5000996;28;94233;-67
2024/01/26 05:55:19;;;;;;;25.50;12.98;;;;;;;;;;5006224;28;93789;-68
2024/01/26 05:57:45;;;;;;;15.30;9.23;;;;;;;;;;4999969;28;91758;-68
2024/01/26 06:00:12;;;;;;;12.00;8.60;;;;;;;;;;4998298;28;92546;-68
2024/01/26 06:02:43;;;;;;;11.18;9.05;;;;;;;;;;5001509;28;93441;-68
2024/01/26 06:05:10;;;;;;;12.18;8.45;;;;;;;;;;4993317;28;97502;-68
2024/01/26 06:07:36;;;;;;;11.18;7.78;;;;;;;;;;5001064;28;95517;-68
2024/01/26 06:10:02;;;;;;;11.82;8.88;;;;;;;;;;4998982;28;92645;-67
2024/01/26 06:12:29;;;;;;;15.32;9.43;;;;;;;;;;4999545;28;95834;-68
2024/01/26 06:14:56;;;;;;;11.95;9.15;;;;;;;;;;4994784;28;95321;-68
2024/01/26 06:17:22;;;;;;;16.05;8.90;;;;;;;;;;4997609;28;92664;-69
2024/01/26 06:19:49;;;;;;;12.52;8.27;;;;;;;;;;4999616;28;93523;-69
2024/01/26 06:22:15;;;;;;;11.77;8.43;;;;;;;;;;4999420;28;92988;-69
2024/01/26 06:24:42;;;;;;;10.73;8.40;;;;;;;;;;5004361;28;92504;-70
2024/01/26 06:27:08;;;;;;;13.95;8.77;;;;;;;;;;5001461;28;93499;-70
2024/01/26 06:29:39;;;;;;;14.95;8.50;;;;;;;;;;4996928;28;95824;-69
2024/01/26 06:32:05;;;;;;;15.27;8.20;;;;;;;;;;5004338;28;95686;-69
2024/01/26 06:34:33;;;;;;;11.13;7.32;;;;;;;;;;5004593;28;94921;-71
2024/01/26 06:37:00;;;;;;;12.85;7.25;;;;;;;;;;5003186;28;92417;-70
2024/01/26 06:39:26;;;;;;;11.10;8.35;;;;;;;;;;5001532;28;93137;-70
2024/01/26 06:41:53;;;;;;;10.63;8.00;;;;;;;;;;5000749;28;93635;-70
2024/01/26 06:44:19;;;;;;;82.35;28.27;;;;;;;;;;5001360;28;92582;-70
2024/01/26 06:46:45;;;;;;;10.27;7.75;;;;;;;;;;4998404;28;92331;-70
2024/01/26 06:49:12;;;;;;;13.15;8.07;;;;;;;;;;4999441;28;93476;-70
2024/01/26 06:51:38;;;;;;;11.27;7.65;;;;;;;;;;5000193;28;92372;-70
2024/01/26 06:54:05;;;;;;;9.25;8.25;;;;;;;;;;4999445;28;95911;-70
2024/01/26 06:56:31;;;;;;;10.68;8.68;;;;;;;;;;4998425;28;92737;-70
2024/01/26 06:58:57;;;;;;;8.95;7.80;;;;;;;;;;5001342;28;93303;-70
2024/01/26 07:01:24;;;;;;;10.90;8.27;;;;;;;;;;5002264;28;93668;-70
2024/01/26 07:03:50;;;;;;;8.75;7.93;;;;;;;;;;4997086;28;92593;-70
2024/01/26 07:06:17;;;;;;;9.80;7.75;;;;;;;;;;5002525;28;97032;-69
2024/01/26 07:08:43;;;;;;;10.55;8.02;;;;;;;;;;4989751;28;93558;-69
2024/01/26 07:11:11;;;;;;;10.93;8.00;;;;;;;;;;5005987;28;91704;-70
2024/01/26 07:13:37;;;;;;;12.80;8.25;;;;;;;;;;5005218;28;93823;-70
2024/01/26 07:16:04;;;;;;;11.30;7.95;;;;;;;;;;4997073;28;95535;-70
2024/01/26 07:18:32;;;;;;;9.35;7.65;;;;;;;;;;5003023;28;94896;-70
2024/01/26 07:20:58;;;;;;;9.23;7.70;;;;;;;;;;5003970;28;94177;-69
2024/01/26 07:23:25;;;;;;;10.45;7.85;;;;;;;;;;5000275;28;92470;-69
2024/01/26 07:25:51;;;;;;;10.25;8.10;;;;;;;;;;4999077;28;94278;-69
2024/01/26 07:28:18;;;;;;;15.88;8.38;;;;;;;;;;5001115;28;93459;-69
2024/01/26 07:30:44;;;;;;;9.52;8.02;;;;;;;;;;5000476;28;93020;-72
2024/01/26 07:33:10;;;;;;;12.05;9.57;;;;;;;;;;4998603;28;92975;-72
2024/01/26 07:35:37;;;;;;;11.23;8.95;;;;;;;;;;5002329;28;91819;-70
2024/01/26 07:38:04;;;;;;;11.95;8.63;;;;;;;;;;5000614;28;93476;-71
2024/01/26 07:40:30;;;;;;;10.18;8.85;;;;;;;;;;5000270;28;93557;-71
2024/01/26 07:42:56;;;;;;;14.38;9.93;;;;;;;;;;5000157;28;94849;-72
2024/01/26 07:45:23;;;;;;;9.63;8.20;;;;;;;;;;5001179;28;96007;-72
2024/01/26 07:47:50;;;;;;;16.83;9.38;;;;;;;;;;4999182;28;93389;-71
2024/01/26 07:50:17;;;;;;;11.45;9.30;;;;;;;;;;5001499;28;92650;-72
2024/01/26 07:52:43;;;;;;;17.10;10.18;;;;;;;;;;5003570;28;93585;-72
2024/01/26 07:55:09;;;;;;;22.05;10.90;;;;;;;;;;5002857;28;93251;-72
2024/01/26 07:57:37;;;;;;;12.68;9.57;;;;;;;;;;5003356;28;93225;-71
2024/01/26 08:00:05;;;;;;;14.75;11.02;;;;;;;;;;5001901;28;92649;-71
2024/01/26 08:02:31;;;;;;;16.23;10.77;;;;;;;;;;4996358;28;92574;-70
2024/01/26 08:04:58;;;;;;;11.60;9.05;;;;;;;;;;5001443;28;93785;-73
2024/01/26 08:07:24;;;;;;;10.93;8.60;;;;;;;;;;5001568;28;95763;-72
2024/01/26 08:09:51;;;;;;;9.40;7.90;;;;;;;;;;5000951;28;95550;-72
2024/01/26 08:12:17;;;;;;;13.07;8.43;;;;;;;;;;5001651;28;94182;-71
2024/01/26 08:15:03;;;;;;;10.95;7.95;;;;;;;;;;5002203;28;93753;-71
2024/01/26 08:17:30;;;;;;;14.52;8.43;;;;;;;;;;5003171;28;92597;-71
2024/01/26 08:20:02;;;;;;;15.93;8.40;;;;;;;;;;4996766;28;95453;-71
2024/01/26 08:22:31;;;;;;;13.80;7.95;;;;;;;;;;5001212;28;92589;-71
2024/01/26 08:24:58;;;;;;;11.40;7.78;;;;;;;;;;5000403;28;93150;-71
2024/01/26 08:27:25;;;;;;;13.48;7.25;;;;;;;;;;4989438;28;93837;-71
2024/01/26 08:29:52;;;;;;;11.18;7.43;;;;;;;;;;4995289;28;92467;-71
2024/01/26 08:32:18;;;;;;;21.88;8.00;;;;;;;;;;5000369;28;94928;-72
2024/01/26 08:34:45;;;;;;;15.45;7.57;;;;;;;;;;4993317;28;93609;-73
2024/01/26 08:37:11;;;;;;;16.30;7.53;;;;;;;;;;5002013;28;92538;-71
2024/01/26 08:39:38;;;;;;;10.50;7.38;;;;;;;;;;5007017;28;93486;-71
2024/01/26 08:42:04;;;;;;;19.00;8.07;;;;;;;;;;5001606;28;92410;-71
2024/01/26 08:44:31;;;;;;;12.10;7.13;;;;;;;;;;5000646;28;93529;-71
2024/01/26 08:46:57;;;;;;;14.00;7.63;;;;;;;;;;4995104;28;93848;-71
2024/01/26 08:49:24;;;;;;;13.70;7.25;;;;;;;;;;4998862;28;91825;-71
2024/01/26 08:51:51;;;;;;;15.23;6.50;;;;;;;;;;5000857;28;92615;-72
2024/01/26 08:54:18;;;;;;;13.55;5.68;;;;;;;;;;4999970;28;93588;-71
2024/01/26 08:56:45;;;;;;;9.27;3.40;;;;;;;;;;4994695;28;94965;-71
2024/01/26 08:59:11;;;;;;;8.98;3.25;;;;;;;;;;4999924;28;96844;-72
2024/01/26 09:01:38;;;;;;;8.20;2.95;;;;;;;;;;4998984;28;92514;-73
2024/01/26 09:04:05;;;;;;;7.75;2.70;;;;;;;;;;5000011;28;93220;-73
2024/01/26 09:06:32;;;;;;;6.68;2.42;;;;;;;;;;5000658;28;93461;-73
2024/01/26 09:08:58;;;;;;;7.40;2.25;;;;;;;;;;4998597;28;92557;-70
2024/01/26 09:11:25;;;;;;;9.18;2.85;;;;;;;;;;4999595;28;93252;-73
2024/01/26 09:13:51;;;;;;;12.15;2.58;;;;;;;;;;5003840;28;92700;-73
2024/01/26 09:16:19;;;;;;;9.27;1.88;;;;;;;;;;4998120;28;92408;-72
2024/01/26 09:18:45;;;;;;;11.23;2.10;;;;;;;;;;4998402;28;93144;-73
2024/01/26 09:21:12;;;;;;;13.98;2.28;;;;;;;;;;4999538;28;96870;-73
2024/01/26 09:23:39;;;;;;;13.55;2.17;;;;;;;;;;5000744;28;96262;-73
2024/01/26 09:26:06;;;;;;;13.45;2.63;;;;;;;;;;5000932;28;93949;-72
2024/01/26 09:28:32;;;;;;;7.38;2.53;;;;;;;;;;4999272;28;92418;-73
2024/01/26 09:30:58;;;;;;;13.52;1.85;;;;;;;;;;4995864;28;93401;-72
2024/01/26 09:33:25;;;;;;;10.43;1.52;;;;;;;;;;5001279;28;93504;-72
2024/01/26 09:35:51;;;;;;;9.35;1.35;;;;;;;;;;4997109;28;92469;-71
2024/01/26 09:38:18;;;;;;;12.55;4.13;;;;;;;;;;5002207;28;94750;-72
2024/01/26 09:40:45;;;;;;;10.90;2.22;;;;;;;;;;5002317;28;93824;-72
2024/01/26 09:43:11;;;;;;;7.25;1.10;;;;;;;;;;5005383;28;92756;-72
2024/01/26 09:45:37;;;;;;;10.32;1.40;;;;;;;;;;5001467;28;96177;-73
2024/01/26 09:48:04;;;;;;;5.45;1.30;;;;;;;;;;5004850;28;92556;-73
2024/01/26 09:50:31;;;;;;;8.93;1.33;;;;;;;;;;5001296;28;93157;-73
2024/01/26 09:52:58;;;;;;;7.70;1.55;;;;;;;;;;5005514;28;93426;-72
2024/01/26 09:55:25;;;;;;;15.48;1.65;;;;;;;;;;4996705;28;92892;-72
2024/01/26 09:57:53;;;;;;;9.35;1.73;;;;;;;;;;4998470;28;94998;-73
2024/01/26 10:00:20;;;;;;;14.75;1.42;;;;;;;;;;4998843;28;93747;-72
2024/01/26 10:02:47;;;;;;;9.43;1.35;;;;;;;;;;5004789;28;92096;-73
2024/01/26 10:05:16;;;;;;;10.13;1.77;;;;;;;;;;5006121;28;96906;-72
2024/01/26 10:07:44;;;;;;;13.38;3.55;;;;;;;;;;4999156;28;92574;-73
2024/01/26 10:10:11;;;;;;;6.85;1.80;;;;;;;;;;4996864;28;94952;-73
2024/01/26 10:12:38;;;;;;;11.88;2.10;;;;;;;;;;5005974;28;93340;-73
2024/01/26 10:15:05;;;;;;;20.13;5.95;;;;;;;;;;5004663;28;92354;-73
2024/01/26 10:17:32;;;;;;;17.15;3.45;;;;;;;;;;5001373;28;93845;-73
2024/01/26 10:20:25;;;;;;;14.40;2.80;;;;;;;;;;5001811;28;93486;-74
2024/01/26 10:22:52;;;;;;;16.02;2.13;;;;;;;;;;4997351;28;92529;-73
2024/01/26 10:25:18;;;;;;;14.05;2.55;;;;;;;;;;5000337;28;94980;-73
2024/01/26 10:27:45;;;;;;;11.93;2.03;;;;;;;;;;5006945;28;94113;-73
2024/01/26 10:30:13;;;;;;;10.25;1.58;;;;;;;;;;5004609;28;92618;-73
2024/01/26 10:32:42;;;;;;;13.00;2.55;;;;;;;;;;4992314;28;92501;-74
2024/01/26 10:35:10;;;;;;;8.25;2.08;;;;;;;;;;5001046;28;94845;-73
2024/01/26 10:37:37;;;;;;;12.88;1.98;;;;;;;;;;5005067;28;95555;-74
2024/01/26 10:40:04;;;;;;;8.77;2.08;;;;;;;;;;5000996;28;93457;-73
2024/01/26 10:42:32;;;;;;;10.90;1.85;;;;;;;;;;5002875;28;93005;-73
2024/01/26 10:45:00;;;;;;;5.40;1.55;;;;;;;;;;5001930;28;92519;-74
2024/01/26 10:47:26;;;;;;;10.13;1.95;;;;;;;;;;5002287;28;93383;-74
2024/01/26 10:49:54;;;;;;;10.23;2.38;;;;;;;;;;5003320;28;92627;-74
2024/01/26 10:52:20;;;;;;;22.50;4.65;;;;;;;;;;4996987;28;92891;-73
2024/01/26 10:54:51;;;;;;;11.55;2.83;;;;;;;;;;4996976;28;92486;-73
2024/01/26 10:57:19;;;;;;;9.88;1.85;;;;;;;;;;5002633;28;92559;-69
2024/01/26 10:59:47;;;;;;;13.90;2.08;;;;;;;;;;4998206;28;99402;-70
2024/01/26 11:02:20;;;;;;;16.20;2.10;;;;;;;;;;4994582;28;94230;-70
2024/01/26 11:04:46;;;;;;;14.10;2.80;;;;;;;;;;5001623;28;95450;-70
2024/01/26 11:07:16;;;;;;;12.60;2.35;;;;;;;;;;4999121;28;96896;-69
2024/01/26 11:09:46;;;;;;;14.57;2.75;;;;;;;;;;5007446;28;92428;-69
2024/01/26 11:12:19;;;;;;;14.50;2.50;;;;;;;;;;5001925;28;93421;-69
2024/01/26 11:14:46;;;;;;;12.15;2.38;;;;;;;;;;4996117;28;95612;-69
2024/01/26 11:17:12;;;;;;;19.90;2.47;;;;;;;;;;5001137;28;93147;-69
2024/01/26 11:19:47;;;;;;;11.57;2.80;;;;;;;;;;4998422;28;93551;-69
2024/01/26 11:22:15;;;;;;;11.30;2.22;;;;;;;;;;4999084;28;92561;-69
2024/01/26 11:24:42;;;;;;;11.63;2.05;;;;;;;;;;5002968;28;94939;-68
2024/01/26 11:27:09;;;;;;;10.27;2.25;;;;;;;;;;5003255;28;93402;-69
2024/01/26 11:29:37;;;;;;;10.73;2.30;;;;;;;;;;5000156;28;92559;-69
2024/01/26 11:32:14;;;;;;;21.50;5.22;;;;;;;;;;5007127;28;93206;-69
2024/01/26 11:34:41;;;;;;;12.63;2.53;;;;;;;;;;4998362;28;92519;-69
2024/01/26 11:37:12;;;;;;;11.77;2.35;;;;;;;;;;5004576;28;92832;-69
2024/01/26 11:39:39;;;;;;;9.68;2.30;;;;;;;;;;5000386;28;93485;-69
2024/01/26 11:42:07;;;;;;;9.82;2.80;;;;;;;;;;5001928;28;91787;-68
2024/01/26 11:44:39;;;;;;;13.30;2.47;;;;;;;;;;5003690;28;92915;-69
2024/01/26 11:47:11;;;;;;;26.90;3.15;;;;;;;;;;4997447;28;93786;-69
2024/01/26 11:49:38;;;;;;;13.15;2.55;;;;;;;;;;5001530;28;96486;-68
2024/01/26 11:52:05;;;;;;;16.70;3.13;;;;;;;;;;4999023;28;95537;-68
2024/01/26 11:54:32;;;;;;;17.02;3.33;;;;;;;;;;5005424;28;93241;-69
2024/01/26 11:56:59;;;;;;;16.30;2.90;;;;;;;;;;4998427;28;93198;-68
2024/01/26 11:59:29;;;;;;;19.33;3.42;;;;;;;;;;4999728;28;93439;-69
2024/01/26 12:01:55;;;;;;;17.33;3.20;;;;;;;;;;4998549;28;92657;-68
2024/01/26 12:04:22;;;;;;;18.20;4.82;;;;;;;;;;4976032;28;95007;-69
2024/01/26 12:06:49;;;;;;;21.63;3.33;;;;;;;;;;5000294;28;92718;-69
2024/01/26 12:09:18;;;;;;;9.85;2.38;;;;;;;;;;4997605;28;92483;-70
2024/01/26 12:11:44;;;;;;;13.23;3.08;;;;;;;;;;5000407;28;93905;-70
2024/01/26 12:14:11;;;;;;;11.13;2.88;;;;;;;;;;4995164;28;96209;-69
2024/01/26 12:16:38;;;;;;;16.70;2.75;;;;;;;;;;5004523;28;92706;-69
2024/01/26 12:19:06;;;;;;;14.63;3.00;;;;;;;;;;5001939;28;94721;-69
2024/01/26 12:21:34;;;;;;;12.23;2.10;;;;;;;;;;5002617;28;92616;-69
2024/01/26 12:24:06;;;;;;;11.38;2.47;;;;;;;;;;4999322;28;93369;-69
2024/01/26 12:26:33;;;;;;;13.32;2.25;;;;;;;;;;5030304;27;93519;-68
2024/01/26 12:28:59;;;;;;;27.00;3.75;;;;;;;;;;5000857;28;92389;-69
2024/01/26 12:31:28;;;;;;;19.55;2.90;;;;;;;;;;4996016;28;94328;-69
2024/01/26 12:33:54;;;;;;;19.02;3.70;;;;;;;;;;4994816;28;93939;-69
2024/01/26 12:36:21;;;;;;;18.88;3.42;;;;;;;;;;5000229;28;92544;-69
2024/01/26 12:38:47;;;;;;;15.63;2.90;;;;;;;;;;5002818;28;94990;-69
2024/01/26 12:41:13;;;;;;;23.20;5.75;;;;;;;;;;5000718;28;92866;-69
2024/01/26 12:43:41;;;;;;;17.17;3.15;;;;;;;;;;4998946;28;92729;-69
2024/01/26 12:46:08;;;;;;;25.08;2.83;;;;;;;;;;4996497;28;93547;-69
2024/01/26 12:48:35;;;;;;;21.80;2.88;;;;;;;;;;4995194;28;92511;-69
2024/01/26 12:51:01;;;;;;;18.10;3.22;;;;;;;;;;4998253;28;93396;-69
2024/01/26 12:53:28;;;;;;;21.20;2.75;;;;;;;;;;4992014;28;94286;-68
2024/01/26 12:55:54;;;;;;;25.73;3.83;;;;;;;;;;4994694;28;91874;-68
2024/01/26 12:58:21;;;;;;;30.73;8.20;;;;;;;;;;4999305;28;92495;-69
2024/01/26 13:00:49;;;;;;;19.38;2.63;;;;;;;;;;5004263;28;95808;-68
2024/01/26 13:03:15;;;;;;;16.67;2.67;;;;;;;;;;5000601;28;95468;-68
2024/01/26 13:05:43;;;;;;;18.08;2.83;;;;;;;;;;5003296;28;94401;-68
2024/01/26 13:08:10;;;;;;;29.13;3.08;;;;;;;;;;4999534;28;92589;-69
2024/01/26 13:10:38;;;;;;;26.23;3.47;;;;;;;;;;4996887;28;93360;-68
2024/01/26 13:13:05;;;;;;;20.23;3.30;;;;;;;;;;4998950;28;93683;-68
2024/01/26 13:15:31;;;;;;;14.65;3.05;;;;;;;;;;5001721;28;92577;-68
2024/01/26 13:17:58;;;;;;;19.05;2.33;;;;;;;;;;5004077;28;92888;-71
2024/01/26 13:20:25;;;;;;;19.67;3.75;;;;;;;;;;5006339;28;92847;-72
2024/01/26 13:22:51;;;;;;;17.50;2.83;;;;;;;;;;5006311;28;92463;-72
2024/01/26 13:25:18;;;;;;;16.60;3.10;;;;;;;;;;5004415;28;93508;-72
2024/01/26 13:27:44;;;;;;;18.83;2.67;;;;;;;;;;5001959;28;94812;-71
2024/01/26 13:30:12;;;;;;;14.50;3.03;;;;;;;;;;4999767;28;95763;-73
2024/01/26 13:32:38;;;;;;;20.52;3.22;;;;;;;;;;5003833;28;93377;-71
2024/01/26 13:35:05;;;;;;;11.90;2.22;;;;;;;;;;5001813;28;93135;-71
2024/01/26 13:37:32;;;;;;;16.52;2.80;;;;;;;;;;5003323;28;93530;-71
2024/01/26 13:39:58;;;;;;;16.00;2.78;;;;;;;;;;4999960;28;94039;-71
2024/01/26 13:42:25;;;;;;;18.83;2.85;;;;;;;;;;5006953;28;92607;-72
2024/01/26 13:44:54;;;;;;;26.10;3.08;;;;;;;;;;5000996;28;92639;-72
2024/01/26 13:47:20;;;;;;;21.65;3.08;;;;;;;;;;5005923;28;92971;-71
2024/01/26 13:49:52;;;;;;;23.45;2.72;;;;;;;;;;5002310;28;93499;-73
2024/01/26 13:52:19;;;;;;;17.42;2.83;;;;;;;;;;5000019;28;95995;-73
2024/01/26 13:54:45;;;;;;;14.38;2.00;;;;;;;;;;5002540;28;92426;-74
2024/01/26 13:57:14;;;;;;;14.52;2.55;;;;;;;;;;5006319;28;95006;-72
2024/01/26 13:59:41;;;;;;;15.48;2.63;;;;;;;;;;5000718;28;92668;-74
2024/01/26 14:02:07;;;;;;;14.05;2.22;;;;;;;;;;5003175;28;92463;-74
2024/01/26 14:04:34;;;;;;;19.15;2.78;;;;;;;;;;5004717;28;93153;-75
2024/01/26 14:07:00;;;;;;;16.25;2.53;;;;;;;;;;4997141;28;93719;-74
2024/01/26 14:09:27;;;;;;;17.40;2.50;;;;;;;;;;5006333;28;93133;-75
2024/01/26 14:11:53;;;;;;;22.30;3.10;;;;;;;;;;4999526;28;93401;-72
2024/01/26 14:14:22;;;;;;;19.63;3.40;;;;;;;;;;5003252;28;92574;-73
2024/01/26 14:16:49;;;;;;;10.43;2.38;;;;;;;;;;4997371;28;98056;-72
2024/01/26 14:19:15;;;;;;;22.88;2.95;;;;;;;;;;4998611;28;94199;-72
2024/01/26 14:21:42;;;;;;;21.63;4.40;;;;;;;;;;5001612;28;92646;-73
2024/01/26 14:24:09;;;;;;;19.27;3.05;;;;;;;;;;5004016;28;93519;-72